createdAt,value
2022-08-05T00:01:00.880Z,26.9
2022-08-05T00:02:44.287Z,26.9
2022-08-05T00:04:27.754Z,26.9
2022-08-05T00:06:11.072Z,26.9
2022-08-05T00:07:54.466Z,26.9
2022-08-05T00:09:37.850Z,26.9
2022-08-05T00:13:04.337Z,26.9
2022-08-05T00:14:47.749Z,26.9
2022-08-05T00:16:31.122Z,26.9
2022-08-05T00:18:14.528Z,26.9
2022-08-05T00:19:57.929Z,26.9
2022-08-05T00:21:41.345Z,26.9
2022-08-05T00:23:24.713Z,26.9
2022-08-05T00:28:33.946Z,26.9
2022-08-05T00:30:17.375Z,26.9
2022-08-05T00:32:00.776Z,26.9
2022-08-05T00:33:44.123Z,26.9
2022-08-05T00:35:27.574Z,26.9
2022-08-05T00:37:10.931Z,26.9
2022-08-05T00:38:54.347Z,26.9
2022-08-05T00:42:20.818Z,26.9
2022-08-05T00:44:04.198Z,26.9
2022-08-05T00:45:47.583Z,26.9
2022-08-05T00:47:30.981Z,26.8
2022-08-05T00:49:14.384Z,26.9
2022-08-05T00:50:57.802Z,26.8
2022-08-05T00:52:41.164Z,26.9
2022-08-05T00:56:07.683Z,26.8
2022-08-05T00:57:51.047Z,26.8
2022-08-05T00:59:34.443Z,26.8
2022-08-05T01:01:17.868Z,26.8
2022-08-05T01:03:01.260Z,26.9
2022-08-05T01:04:44.633Z,26.8
2022-08-05T01:06:28.013Z,26.8
2022-08-05T01:08:11.741Z,26.8
2022-08-05T01:09:55.148Z,26.8
2022-08-05T01:11:38.550Z,26.8
2022-08-05T01:13:21.911Z,26.8
2022-08-05T01:15:05.317Z,26.8
2022-08-05T01:16:48.754Z,26.8
2022-08-05T01:18:32.132Z,26.8
2022-08-05T01:23:41.387Z,26.8
2022-08-05T01:25:24.781Z,26.8
2022-08-05T01:27:08.128Z,26.8
2022-08-05T01:28:51.531Z,26.8
2022-08-05T01:30:34.942Z,26.8
2022-08-05T01:32:18.323Z,26.8
2022-08-05T01:34:01.743Z,26.8
2022-08-05T01:35:45.460Z,26.8
2022-08-05T01:37:28.840Z,26.8
2022-08-05T01:39:12.223Z,26.7
2022-08-05T01:40:55.630Z,26.8
2022-08-05T01:42:39.075Z,26.8
2022-08-05T01:44:22.420Z,26.7
2022-08-05T01:46:05.809Z,26.7
2022-08-05T01:47:49.236Z,26.7
2022-08-05T01:49:32.933Z,26.7
2022-08-05T01:51:16.337Z,26.7
2022-08-05T01:52:59.735Z,26.7
2022-08-05T01:54:43.129Z,26.7
2022-08-05T01:56:26.498Z,26.7
2022-08-05T01:58:09.906Z,26.7
2022-08-05T01:59:53.327Z,26.7
2022-08-05T02:05:02.549Z,26.7
2022-08-05T02:06:45.964Z,26.7
2022-08-05T02:08:29.332Z,26.7
2022-08-05T02:10:12.740Z,26.7
2022-08-05T02:11:56.159Z,26.7
2022-08-05T02:13:39.536Z,26.7
2022-08-05T02:15:22.972Z,26.7
2022-08-05T02:18:49.421Z,26.7
2022-08-05T02:20:32.814Z,26.7
2022-08-05T02:22:16.195Z,26.7
2022-08-05T02:23:59.602Z,26.7
2022-08-05T02:25:42.993Z,26.7
2022-08-05T02:27:26.379Z,26.7
2022-08-05T02:29:09.815Z,26.7
2022-08-05T02:34:19.696Z,26.7
2022-08-05T02:36:03.055Z,26.7
2022-08-05T02:37:46.448Z,26.7
2022-08-05T02:39:29.868Z,26.7
2022-08-05T02:41:13.240Z,26.7
2022-08-05T02:42:56.671Z,26.7
2022-08-05T02:46:23.106Z,26.7
2022-08-05T02:48:06.536Z,26.7
2022-08-05T02:49:49.928Z,26.7
2022-08-05T02:51:33.336Z,26.7
2022-08-05T02:53:16.692Z,26.7
2022-08-05T02:55:00.104Z,26.6
2022-08-05T02:56:43.497Z,26.6
2022-08-05T03:00:09.969Z,26.7
2022-08-05T03:01:53.359Z,26.7
2022-08-05T03:03:36.775Z,26.7
2022-08-05T03:05:20.144Z,26.7
2022-08-05T03:07:03.571Z,26.6
2022-08-05T03:08:46.968Z,26.6
2022-08-05T03:10:30.366Z,26.6
2022-08-05T03:15:39.632Z,26.7
2022-08-05T03:17:22.975Z,26.7
2022-08-05T03:19:06.424Z,26.7
2022-08-05T03:20:49.827Z,26.6
2022-08-05T03:22:33.180Z,26.7
2022-08-05T03:24:16.568Z,26.6
2022-08-05T03:25:59.963Z,26.7
2022-08-05T03:29:26.432Z,26.6
2022-08-05T03:31:09.863Z,26.6
2022-08-05T03:32:53.254Z,26.6
2022-08-05T03:34:36.642Z,26.6
2022-08-05T03:36:20.039Z,26.6
2022-08-05T03:38:03.454Z,26.6
2022-08-05T03:39:46.823Z,26.6
2022-08-05T03:41:30.224Z,26.6
2022-08-05T03:44:56.701Z,26.6
2022-08-05T03:46:40.107Z,26.6
2022-08-05T03:48:23.481Z,26.6
2022-08-05T03:50:06.893Z,26.6
2022-08-05T03:51:50.288Z,26.6
2022-08-05T03:53:33.688Z,26.6
2022-08-05T03:55:17.062Z,26.6
2022-08-05T04:00:26.352Z,26.6
2022-08-05T04:02:09.736Z,26.6
2022-08-05T04:03:53.107Z,26.6
2022-08-05T04:05:36.509Z,26.6
2022-08-05T04:07:19.904Z,26.6
2022-08-05T04:09:03.311Z,26.6
2022-08-05T04:10:46.690Z,26.6
2022-08-05T04:14:13.170Z,26.6
2022-08-05T04:15:56.562Z,26.6
2022-08-05T04:17:39.972Z,26.6
2022-08-05T04:19:23.363Z,26.6
2022-08-05T04:21:06.765Z,26.6
2022-08-05T04:22:50.185Z,26.6
2022-08-05T04:24:33.545Z,26.6
2022-08-05T04:29:42.810Z,26.6
2022-08-05T04:31:26.216Z,26.6
2022-08-05T04:33:09.593Z,26.5
2022-08-05T04:34:52.994Z,26.5
2022-08-05T04:36:36.388Z,26.5
2022-08-05T04:38:19.784Z,26.5
2022-08-05T04:40:03.175Z,26.5
2022-08-05T04:41:46.582Z,26.5
2022-08-05T04:43:30.287Z,26.5
2022-08-05T04:45:13.686Z,26.6
2022-08-05T04:46:57.087Z,26.6
2022-08-05T04:48:40.534Z,26.5
2022-08-05T04:50:23.876Z,26.5
2022-08-05T04:52:07.279Z,26.5
2022-08-05T04:53:50.666Z,26.5
2022-08-05T04:55:34.064Z,26.5
2022-08-05T04:59:00.544Z,26.5
2022-08-05T05:00:43.927Z,26.5
2022-08-05T05:02:27.324Z,26.5
2022-08-05T05:04:10.757Z,26.5
2022-08-05T05:05:54.122Z,26.5
2022-08-05T05:07:37.523Z,26.5
2022-08-05T05:09:20.920Z,26.5
2022-08-05T05:11:04.310Z,26.5
2022-08-05T05:14:30.795Z,26.5
2022-08-05T05:16:14.185Z,26.5
2022-08-05T05:17:57.579Z,26.5
2022-08-05T05:19:41.029Z,26.5
2022-08-05T05:21:24.393Z,26.5
2022-08-05T05:23:07.772Z,26.5
2022-08-05T05:24:51.171Z,26.5
2022-08-05T05:30:00.423Z,26.5
2022-08-05T05:31:43.894Z,26.6
2022-08-05T05:33:27.207Z,26.6
2022-08-05T05:35:10.599Z,26.6
2022-08-05T05:36:54.003Z,26.5
2022-08-05T05:38:37.396Z,26.6
2022-08-05T05:40:20.817Z,26.6
2022-08-05T05:45:30.053Z,26.6
2022-08-05T05:47:13.448Z,26.6
2022-08-05T05:48:56.853Z,26.6
2022-08-05T05:50:40.242Z,26.6
2022-08-05T05:52:23.635Z,26.6
2022-08-05T05:54:07.026Z,26.6
2022-08-05T05:55:50.423Z,26.6
2022-08-05T06:01:02.055Z,26.6
2022-08-05T06:02:43.075Z,26.6
2022-08-05T06:04:26.470Z,26.6
2022-08-05T06:06:09.866Z,26.6
2022-08-05T06:07:53.245Z,26.6
2022-08-05T06:09:36.649Z,26.6
2022-08-05T06:11:20.076Z,26.7
2022-08-05T06:16:29.301Z,26.7
2022-08-05T06:18:12.692Z,26.7
2022-08-05T06:19:56.084Z,26.7
2022-08-05T06:21:39.492Z,26.7
2022-08-05T06:23:22.889Z,26.7
2022-08-05T06:25:06.273Z,26.7
2022-08-05T06:26:49.671Z,26.7
2022-08-05T06:28:33.069Z,26.7
2022-08-05T06:30:16.774Z,26.7
2022-08-05T06:32:00.164Z,26.7
2022-08-05T06:33:43.574Z,26.7
2022-08-05T06:35:26.975Z,26.7
2022-08-05T06:37:10.367Z,26.7
2022-08-05T06:38:53.756Z,26.7
2022-08-05T06:40:37.147Z,26.7
2022-08-05T06:45:46.401Z,26.7
2022-08-05T06:47:29.782Z,26.7
2022-08-05T06:49:13.186Z,26.7
2022-08-05T06:50:56.606Z,26.7
2022-08-05T06:52:39.986Z,26.7
2022-08-05T06:54:23.385Z,26.7
2022-08-05T06:56:06.806Z,26.8
2022-08-05T06:59:33.253Z,26.8
2022-08-05T07:01:16.646Z,26.8
2022-08-05T07:03:00.052Z,26.8
2022-08-05T07:04:43.441Z,26.8
2022-08-05T07:06:26.839Z,26.8
2022-08-05T07:08:10.220Z,26.8
2022-08-05T07:09:53.645Z,26.8
2022-08-05T07:13:20.099Z,26.9
2022-08-05T07:15:03.493Z,26.9
2022-08-05T07:16:46.893Z,26.9
2022-08-05T07:18:30.280Z,26.9
2022-08-05T07:20:13.682Z,26.9
2022-08-05T07:21:57.071Z,26.9
2022-08-05T07:23:40.470Z,26.9
2022-08-05T07:28:49.717Z,26.9
2022-08-05T07:30:33.107Z,26.9
2022-08-05T07:32:16.514Z,26.9
2022-08-05T07:33:59.911Z,26.9
2022-08-05T07:35:43.295Z,26.9
2022-08-05T07:37:26.706Z,26.9
2022-08-05T07:39:10.102Z,26.9
2022-08-05T07:42:36.571Z,27
2022-08-05T07:44:19.964Z,27
2022-08-05T07:46:03.359Z,26.9
2022-08-05T07:47:46.760Z,27
2022-08-05T07:49:30.165Z,27
2022-08-05T07:51:13.548Z,27
2022-08-05T07:52:56.954Z,27
2022-08-05T07:56:23.413Z,27
2022-08-05T07:58:06.807Z,27
2022-08-05T07:59:50.220Z,27
2022-08-05T08:01:33.604Z,27
2022-08-05T08:03:16.993Z,27
2022-08-05T08:05:00.401Z,27
2022-08-05T08:06:43.805Z,27
2022-08-05T08:10:10.268Z,27
2022-08-05T08:11:53.658Z,27
2022-08-05T08:13:37.059Z,27
2022-08-05T08:15:20.445Z,27
2022-08-05T08:17:03.864Z,27
2022-08-05T08:18:47.246Z,27
2022-08-05T08:20:30.875Z,27
2022-08-05T08:23:57.109Z,27
2022-08-05T08:25:40.509Z,27.1
2022-08-05T08:27:23.893Z,27.1
2022-08-05T08:29:07.309Z,27.1
2022-08-05T08:30:50.690Z,27.1
2022-08-05T08:32:34.102Z,27.1
2022-08-05T08:34:17.485Z,27.1
2022-08-05T08:39:26.735Z,27.1
2022-08-05T08:41:10.127Z,27.1
2022-08-05T08:42:53.521Z,27.1
2022-08-05T08:44:36.917Z,27.1
2022-08-05T08:46:20.326Z,27.1
2022-08-05T08:48:03.709Z,27.1
2022-08-05T08:49:47.115Z,27.1
2022-08-05T08:53:13.586Z,27.1
2022-08-05T08:54:56.968Z,27.1
2022-08-05T08:56:40.381Z,27.1
2022-08-05T08:58:23.767Z,27.2
2022-08-05T09:00:07.155Z,27.2
2022-08-05T09:01:50.563Z,27.2
2022-08-05T09:03:33.943Z,27.2
2022-08-05T09:07:00.428Z,27.2
2022-08-05T09:08:43.824Z,27.2
2022-08-05T09:10:27.215Z,27.2
2022-08-05T09:12:10.613Z,27.2
2022-08-05T09:13:54.015Z,27.2
2022-08-05T09:15:37.443Z,27.2
2022-08-05T09:17:20.797Z,27.2
2022-08-05T09:19:04.205Z,27.2
2022-08-05T09:20:47.921Z,27.2
2022-08-05T09:22:31.302Z,27.2
2022-08-05T09:24:14.701Z,27.2
2022-08-05T09:25:58.078Z,27.2
2022-08-05T09:27:41.481Z,27.2
2022-08-05T09:29:24.872Z,27.2
2022-08-05T09:31:08.280Z,27.2
2022-08-05T09:32:51.662Z,27.2
2022-08-05T09:34:35.392Z,27.2
2022-08-05T09:36:18.779Z,27.2
2022-08-05T09:38:02.175Z,27.2
2022-08-05T09:39:45.562Z,27.2
2022-08-05T09:41:28.951Z,27.2
2022-08-05T09:43:12.344Z,27.2
2022-08-05T09:44:55.748Z,27.2
2022-08-05T09:46:39.159Z,27.2
2022-08-05T09:48:22.856Z,27.2
2022-08-05T09:50:06.260Z,27.2
2022-08-05T09:51:49.655Z,27.2
2022-08-05T09:53:33.037Z,27.2
2022-08-05T09:55:16.442Z,27.3
2022-08-05T09:56:59.847Z,27.3
2022-08-05T09:58:43.232Z,27.3
2022-08-05T10:00:26.632Z,27.3
2022-08-05T10:02:10.329Z,27.3
2022-08-05T10:03:53.722Z,27.3
2022-08-05T10:05:37.113Z,27.3
2022-08-05T10:07:20.522Z,27.3
2022-08-05T10:09:03.907Z,27.3
2022-08-05T10:10:47.295Z,27.3
2022-08-05T10:12:30.713Z,27.3
2022-08-05T10:14:14.085Z,27.3
2022-08-05T10:17:40.570Z,27.3
2022-08-05T10:19:23.968Z,27.3
2022-08-05T10:21:07.373Z,27.3
2022-08-05T10:22:50.771Z,27.3
2022-08-05T10:24:34.166Z,27.3
2022-08-05T10:26:17.594Z,27.3
2022-08-05T10:28:00.981Z,27.3
2022-08-05T10:31:27.436Z,27.3
2022-08-05T10:33:10.809Z,27.3
2022-08-05T10:34:54.205Z,27.3
2022-08-05T10:36:37.600Z,27.3
2022-08-05T10:38:21.013Z,27.3
2022-08-05T10:40:04.414Z,27.3
2022-08-05T10:41:47.799Z,27.3
2022-08-05T10:45:20.808Z,27.4
2022-08-05T10:46:57.682Z,27.4
2022-08-05T10:48:41.073Z,27.4
2022-08-05T10:50:24.454Z,27.4
2022-08-05T10:52:07.858Z,27.4
2022-08-05T10:53:51.269Z,27.4
2022-08-05T10:55:34.652Z,27.4
2022-08-05T10:59:01.152Z,27.4
2022-08-05T11:00:44.539Z,27.4
2022-08-05T11:02:27.940Z,27.4
2022-08-05T11:04:11.335Z,27.4
2022-08-05T11:05:54.716Z,27.4
2022-08-05T11:07:38.108Z,27.4
2022-08-05T11:09:21.504Z,27.4
2022-08-05T11:11:04.912Z,27.4
2022-08-05T11:14:31.378Z,27.4
2022-08-05T11:16:14.778Z,27.5
2022-08-05T11:17:58.179Z,27.4
2022-08-05T11:19:41.574Z,27.5
2022-08-05T11:21:24.969Z,27.5
2022-08-05T11:23:08.360Z,27.5
2022-08-05T11:24:51.754Z,27.5
2022-08-05T11:28:18.227Z,27.5
2022-08-05T11:30:01.632Z,27.5
2022-08-05T11:31:45.047Z,27.5
2022-08-05T11:33:28.423Z,27.5
2022-08-05T11:35:11.832Z,27.5
2022-08-05T11:36:55.232Z,27.5
2022-08-05T11:38:38.616Z,27.5
2022-08-05T11:42:05.104Z,27.5
2022-08-05T11:43:48.489Z,27.5
2022-08-05T11:45:31.885Z,27.5
2022-08-05T11:47:15.300Z,27.5
2022-08-05T11:48:58.666Z,27.5
2022-08-05T11:50:42.106Z,27.5
2022-08-05T11:52:25.469Z,27.5
2022-08-05T11:54:08.866Z,27.5
2022-08-05T11:55:52.580Z,27.5
2022-08-05T11:57:35.971Z,27.5
2022-08-05T11:59:19.369Z,27.5
2022-08-05T12:01:02.766Z,27.5
2022-08-05T12:02:46.146Z,27.5
2022-08-05T12:04:29.554Z,27.5
2022-08-05T12:06:12.955Z,27.5
2022-08-05T12:09:39.434Z,27.5
2022-08-05T12:11:22.825Z,27.5
2022-08-05T12:13:06.228Z,27.5
2022-08-05T12:14:49.626Z,27.5
2022-08-05T12:16:33.011Z,27.5
2022-08-05T12:18:16.411Z,27.5
2022-08-05T12:19:59.811Z,27.5
2022-08-05T12:25:09.052Z,27.5
2022-08-05T12:26:52.444Z,27.6
2022-08-05T12:28:35.835Z,27.6
2022-08-05T12:30:19.228Z,27.6
2022-08-05T12:32:02.644Z,27.7
2022-08-05T12:33:46.042Z,27.7
2022-08-05T12:38:55.897Z,27.8
2022-08-05T12:40:39.305Z,27.8
2022-08-05T12:42:22.695Z,27.8
2022-08-05T12:44:06.097Z,27.9
2022-08-05T12:45:49.480Z,27.9
2022-08-05T12:47:32.888Z,27.9
2022-08-05T12:49:16.286Z,27.9
2022-08-05T12:50:59.985Z,28
2022-08-05T12:52:43.392Z,28
2022-08-05T12:54:26.773Z,28
2022-08-05T12:56:10.179Z,28
2022-08-05T12:58:13.581Z,28
2022-08-05T12:59:36.981Z,28
2022-08-05T13:01:20.384Z,28.1
2022-08-05T13:03:03.769Z,28
2022-08-05T13:04:47.479Z,28.1
2022-08-05T13:06:30.864Z,28
2022-08-05T13:08:14.279Z,28
2022-08-05T13:09:57.662Z,28
2022-08-05T13:11:41.059Z,28
2022-08-05T13:13:24.464Z,28
2022-08-05T13:15:07.861Z,28
2022-08-05T13:18:34.328Z,28
2022-08-05T13:20:17.725Z,28
2022-08-05T13:22:01.128Z,28
2022-08-05T13:23:44.525Z,28
2022-08-05T13:25:27.918Z,28
2022-08-05T13:27:11.311Z,28
2022-08-05T13:28:54.711Z,28
2022-08-05T13:32:21.185Z,28
2022-08-05T13:34:04.580Z,27.9
2022-08-05T13:35:47.971Z,27.9
2022-08-05T13:37:31.371Z,27.9
2022-08-05T13:39:14.774Z,27.9
2022-08-05T13:40:58.180Z,27.9
2022-08-05T13:42:41.570Z,27.9
2022-08-05T13:46:08.045Z,27.9
2022-08-05T13:47:51.446Z,27.9
2022-08-05T13:49:34.854Z,27.9
2022-08-05T13:51:18.270Z,27.9
2022-08-05T13:53:01.625Z,27.9
2022-08-05T13:54:45.032Z,27.9
2022-08-05T13:56:28.418Z,27.9
2022-08-05T13:59:54.891Z,27.9
2022-08-05T14:01:38.300Z,27.9
2022-08-05T14:03:21.682Z,27.9
2022-08-05T14:05:05.090Z,27.9
2022-08-05T14:06:48.494Z,27.9
2022-08-05T14:08:31.870Z,27.9
2022-08-05T14:10:15.291Z,27.9
2022-08-05T14:11:58.677Z,27.9
2022-08-05T14:13:42.375Z,27.9
2022-08-05T14:15:25.781Z,27.9
2022-08-05T14:17:09.178Z,27.9
2022-08-05T14:18:52.565Z,27.9
2022-08-05T14:20:35.968Z,27.9
2022-08-05T14:22:19.366Z,27.8
2022-08-05T14:24:02.755Z,27.9
2022-08-05T14:27:29.247Z,27.8
2022-08-05T14:29:12.663Z,27.8
2022-08-05T14:30:56.037Z,27.8
2022-08-05T14:32:39.436Z,27.8
2022-08-05T14:34:22.828Z,27.8
2022-08-05T14:36:06.237Z,27.8
2022-08-05T14:37:49.606Z,27.8
2022-08-05T14:41:16.084Z,27.8
2022-08-05T14:42:59.502Z,27.8
2022-08-05T14:44:42.883Z,27.8
2022-08-05T14:46:26.291Z,27.8
2022-08-05T14:48:09.679Z,27.8
2022-08-05T14:49:53.076Z,27.8
2022-08-05T14:51:36.469Z,27.7
2022-08-05T14:55:02.944Z,27.7
2022-08-05T14:56:46.338Z,27.7
2022-08-05T14:58:29.739Z,27.7
2022-08-05T15:00:13.129Z,27.7
2022-08-05T15:01:56.543Z,27.7
2022-08-05T15:03:39.943Z,27.7
2022-08-05T15:05:23.343Z,27.7
2022-08-05T15:08:49.791Z,27.7
2022-08-05T15:10:33.208Z,27.7
2022-08-05T15:12:16.639Z,27.7
2022-08-05T15:13:59.991Z,27.7
2022-08-05T15:15:43.403Z,27.7
2022-08-05T15:17:26.782Z,27.7
2022-08-05T15:19:10.190Z,27.7
2022-08-05T15:24:19.421Z,27.7
2022-08-05T15:26:02.811Z,27.6
2022-08-05T15:27:46.210Z,27.6
2022-08-05T15:29:29.603Z,27.7
2022-08-05T15:31:13.030Z,27.6
2022-08-05T15:32:56.413Z,27.7
2022-08-05T15:34:39.814Z,27.7
2022-08-05T15:38:06.279Z,27.7
2022-08-05T15:39:49.682Z,27.7
2022-08-05T15:41:33.101Z,27.7
2022-08-05T15:43:16.501Z,27.7
2022-08-05T15:44:59.907Z,27.7
2022-08-05T15:46:43.318Z,27.7
2022-08-05T15:48:26.662Z,27.7
2022-08-05T15:53:35.916Z,27.7
2022-08-05T15:55:19.302Z,27.7
2022-08-05T15:57:02.707Z,27.7
2022-08-05T15:58:46.100Z,27.8
2022-08-05T16:00:29.492Z,27.8
2022-08-05T16:02:12.938Z,27.8
2022-08-05T16:03:56.313Z,27.8
2022-08-05T16:05:39.673Z,27.8
2022-08-05T16:09:06.368Z,27.8
2022-08-05T16:10:49.574Z,27.9
2022-08-05T16:12:32.958Z,27.9
2022-08-05T16:14:16.344Z,27.9
2022-08-05T16:15:59.760Z,27.9
2022-08-05T16:17:43.167Z,27.9
2022-08-05T16:19:26.542Z,28
2022-08-05T16:21:09.965Z,28
2022-08-05T16:24:36.409Z,28
2022-08-05T16:26:19.828Z,28
2022-08-05T16:28:03.230Z,28
2022-08-05T16:29:46.602Z,28
2022-08-05T16:31:30.018Z,28
2022-08-05T16:33:13.392Z,28.1
2022-08-05T16:34:56.844Z,28.1
2022-08-05T16:36:40.223Z,28.1
2022-08-05T16:38:23.907Z,28.1
2022-08-05T16:40:07.287Z,28.1
2022-08-05T16:41:50.694Z,28.1
2022-08-05T16:43:34.081Z,28.1
2022-08-05T16:45:17.479Z,28.1
2022-08-05T16:47:00.910Z,28.2
2022-08-05T16:48:44.327Z,28.2
2022-08-05T16:50:27.676Z,28.2
2022-08-05T16:53:54.161Z,28.2
2022-08-05T16:55:37.541Z,28.2
2022-08-05T16:57:20.951Z,28.2
2022-08-05T16:59:04.354Z,28.2
2022-08-05T17:00:47.739Z,28.2
2022-08-05T17:02:31.138Z,28.2
2022-08-05T17:04:14.560Z,28.2
2022-08-05T17:07:40.996Z,28.2
2022-08-05T17:09:24.398Z,28.2
2022-08-05T17:11:07.798Z,28.2
2022-08-05T17:12:51.181Z,28.2
2022-08-05T17:14:34.600Z,28.2
2022-08-05T17:16:18.009Z,28.2
2022-08-05T17:18:01.373Z,28.2
2022-08-05T17:19:44.795Z,28.2
2022-08-05T17:21:28.489Z,28.2
2022-08-05T17:23:11.899Z,28.2
2022-08-05T17:24:55.302Z,28.2
2022-08-05T17:26:38.705Z,28.1
2022-08-05T17:28:22.080Z,28.1
2022-08-05T17:30:05.511Z,28.1
2022-08-05T17:31:48.867Z,28.1
2022-08-05T17:33:32.291Z,28.1
2022-08-05T17:36:58.736Z,28.1
2022-08-05T17:38:42.137Z,28.1
2022-08-05T17:40:25.559Z,28
2022-08-05T17:42:08.927Z,28
2022-08-05T17:43:52.327Z,28
2022-08-05T17:45:35.729Z,28
2022-08-05T17:47:19.127Z,28
2022-08-05T17:52:28.357Z,28
2022-08-05T17:54:11.767Z,27.9
2022-08-05T17:55:55.185Z,27.9
2022-08-05T17:57:38.590Z,27.9
2022-08-05T17:59:21.982Z,27.9
2022-08-05T18:01:05.345Z,27.9
2022-08-05T18:02:48.754Z,27.9
2022-08-05T18:06:15.250Z,27.9
2022-08-05T18:07:58.646Z,27.9
2022-08-05T18:09:42.015Z,27.8
2022-08-05T18:11:25.415Z,27.8
2022-08-05T18:13:08.811Z,27.8
2022-08-05T18:14:52.188Z,27.8
2022-08-05T18:16:35.631Z,27.8
2022-08-05T18:18:19.033Z,27.8
2022-08-05T18:21:45.476Z,27.8
2022-08-05T18:23:28.856Z,27.8
2022-08-05T18:25:12.267Z,27.8
2022-08-05T18:26:55.665Z,27.8
2022-08-05T18:28:39.085Z,27.8
2022-08-05T18:30:22.458Z,27.8
2022-08-05T18:32:05.860Z,27.8
2022-08-05T18:33:49.278Z,27.7
2022-08-05T18:35:32.946Z,27.7
2022-08-05T18:37:16.351Z,27.7
2022-08-05T18:38:59.770Z,27.7
2022-08-05T18:40:43.147Z,27.7
2022-08-05T18:42:26.541Z,27.7
2022-08-05T18:44:09.967Z,27.7
2022-08-05T18:45:53.371Z,27.7
2022-08-05T18:47:36.760Z,27.7
2022-08-05T18:49:20.451Z,27.7
2022-08-05T18:51:03.834Z,27.7
2022-08-05T18:52:47.235Z,27.7
2022-08-05T18:54:30.615Z,27.7
2022-08-05T18:56:14.030Z,27.7
2022-08-05T18:57:57.407Z,27.7
2022-08-05T18:59:40.806Z,27.6
2022-08-05T19:01:24.211Z,27.6
2022-08-05T19:04:50.689Z,27.6
2022-08-05T19:06:34.078Z,27.6
2022-08-05T19:08:17.468Z,27.6
2022-08-05T19:10:00.879Z,27.6
2022-08-05T19:11:44.274Z,27.6
2022-08-05T19:13:27.668Z,27.6
2022-08-05T19:15:11.053Z,27.6
2022-08-05T19:16:54.456Z,27.6
2022-08-05T19:18:38.157Z,27.6
2022-08-05T19:20:21.555Z,27.6
2022-08-05T19:22:04.962Z,27.7
2022-08-05T19:23:48.357Z,27.7
2022-08-05T19:25:31.750Z,27.7
2022-08-05T19:27:15.153Z,27.7
2022-08-05T19:28:58.546Z,27.7
2022-08-05T19:30:41.937Z,27.7
2022-08-05T19:34:08.410Z,27.7
2022-08-05T19:35:51.805Z,27.7
2022-08-05T19:37:35.199Z,27.7
2022-08-05T19:39:18.601Z,27.7
2022-08-05T19:41:01.989Z,27.7
2022-08-05T19:42:45.395Z,27.7
2022-08-05T19:44:28.807Z,27.6
2022-08-05T19:46:12.182Z,27.6
2022-08-05T19:49:38.658Z,27.6
2022-08-05T19:51:22.070Z,27.6
2022-08-05T19:54:48.848Z,27.6
2022-08-05T19:56:32.257Z,27.6
2022-08-05T19:58:15.663Z,27.6
2022-08-05T19:59:59.040Z,27.6
2022-08-05T20:03:26.056Z,27.6
2022-08-05T20:05:08.923Z,27.6
2022-08-05T20:06:52.307Z,27.6
2022-08-05T20:08:35.715Z,27.6
2022-08-05T20:10:19.118Z,27.6
2022-08-05T20:12:02.503Z,27.6
2022-08-05T20:13:45.897Z,27.6
2022-08-05T20:18:55.162Z,27.6
2022-08-05T20:20:38.543Z,27.6
2022-08-05T20:22:21.935Z,27.6
2022-08-05T20:24:05.335Z,27.6
2022-08-05T20:25:48.726Z,27.6
2022-08-05T20:27:32.113Z,27.6
2022-08-05T20:29:15.504Z,27.6
2022-08-05T20:32:41.985Z,27.6
2022-08-05T20:34:25.373Z,27.6
2022-08-05T20:36:08.774Z,27.6
2022-08-05T20:37:52.183Z,27.6
2022-08-05T20:39:35.588Z,27.5
2022-08-05T20:41:18.969Z,27.5
2022-08-05T20:43:02.367Z,27.5
2022-08-05T20:46:28.857Z,27.5
2022-08-05T20:48:12.236Z,27.5
2022-08-05T20:49:55.625Z,27.5
2022-08-05T20:51:39.030Z,27.5
2022-08-05T20:53:22.427Z,27.5
2022-08-05T20:55:05.818Z,27.5
2022-08-05T20:56:49.223Z,27.5
2022-08-05T21:01:58.452Z,27.5
2022-08-05T21:03:41.852Z,27.5
2022-08-05T21:05:25.252Z,27.4
2022-08-05T21:07:08.649Z,27.5
2022-08-05T21:08:52.035Z,27.5
2022-08-05T21:10:35.484Z,27.5
2022-08-05T21:12:18.847Z,27.5
2022-08-05T21:15:45.341Z,27.5
2022-08-05T21:17:28.710Z,27.5
2022-08-05T21:19:12.107Z,27.5
2022-08-05T21:20:55.522Z,27.5
2022-08-05T21:22:38.909Z,27.4
2022-08-05T21:24:22.288Z,27.4
2022-08-05T21:26:05.695Z,27.4
2022-08-05T21:31:14.937Z,27.4
2022-08-05T21:32:58.347Z,27.4
2022-08-05T21:34:41.726Z,27.4
2022-08-05T21:36:25.126Z,27.4
2022-08-05T21:38:08.522Z,27.4
2022-08-05T21:39:51.909Z,27.4
2022-08-05T21:41:35.348Z,27.4
2022-08-05T21:45:01.772Z,27.4
2022-08-05T21:46:45.189Z,27.3
2022-08-05T21:48:28.577Z,27.3
2022-08-05T21:50:11.989Z,27.3
2022-08-05T21:51:55.377Z,27.3
2022-08-05T21:53:38.756Z,27.3
2022-08-05T21:55:22.188Z,27.3
2022-08-05T21:57:05.564Z,27.3
2022-08-05T21:58:49.266Z,27.3
2022-08-05T22:00:32.656Z,27.3
2022-08-05T22:02:16.058Z,27.3
2022-08-05T22:03:59.478Z,27.3
2022-08-05T22:05:42.856Z,27.3
2022-08-05T22:07:26.247Z,27.3
2022-08-05T22:09:09.642Z,27.3
2022-08-05T22:14:18.873Z,27.3
2022-08-05T22:16:02.297Z,27.2
2022-08-05T22:17:45.665Z,27.2
2022-08-05T22:19:29.067Z,27.2
2022-08-05T22:21:12.454Z,27.2
2022-08-05T22:22:55.870Z,27.2
2022-08-05T22:24:39.255Z,27.2
2022-08-05T22:29:48.505Z,27.2
2022-08-05T22:31:32.383Z,27.2
2022-08-05T22:33:15.298Z,27.2
2022-08-05T22:34:58.694Z,27.2
2022-08-05T22:36:42.081Z,27.2
2022-08-05T22:38:25.501Z,27.2
2022-08-05T22:40:08.861Z,27.1
2022-08-05T22:41:52.262Z,27.1
2022-08-05T22:45:18.735Z,27.1
2022-08-05T22:47:02.157Z,27.1
2022-08-05T22:48:45.534Z,27.1
2022-08-05T22:50:28.941Z,27.1
2022-08-05T22:52:12.320Z,27.1
2022-08-05T22:53:55.713Z,27.1
2022-08-05T22:55:39.112Z,27.1
2022-08-05T23:00:48.609Z,27.1
2022-08-05T23:02:31.755Z,27.1
2022-08-05T23:04:15.164Z,27.1
2022-08-05T23:05:58.547Z,27.1
2022-08-05T23:07:41.953Z,27
2022-08-05T23:09:25.340Z,27
2022-08-05T23:11:08.742Z,27
2022-08-05T23:16:17.979Z,27
2022-08-05T23:18:01.376Z,27
2022-08-05T23:19:44.764Z,27
2022-08-05T23:21:28.164Z,27
2022-08-05T23:23:11.559Z,27
2022-08-05T23:24:54.956Z,27
2022-08-05T23:26:38.350Z,27
2022-08-05T23:28:21.753Z,27
2022-08-05T23:30:05.455Z,27
2022-08-05T23:31:48.843Z,27
2022-08-05T23:33:32.234Z,27
2022-08-05T23:35:15.682Z,27
2022-08-05T23:36:59.039Z,26.9
2022-08-05T23:38:42.456Z,26.9
2022-08-05T23:40:25.830Z,26.9
2022-08-05T23:42:09.238Z,26.9
2022-08-05T23:45:35.691Z,26.9
2022-08-05T23:47:19.084Z,26.9
2022-08-05T23:49:02.499Z,26.9
2022-08-05T23:50:45.888Z,26.9
2022-08-05T23:52:29.271Z,26.9
2022-08-05T23:54:12.664Z,26.9
2022-08-05T23:55:56.076Z,26.9
2022-08-05T23:57:39.479Z,26.9
2022-08-05T23:59:23.170Z,26.9
